sensor_id;sensor_type;location;lat;lon;timestamp;pressure;altitude;pressure_sealevel;temperature;humidity
20455;BME280;10386;54.314;10.022;2023-02-21T00:02:43;99968.88;;;8.05;100.00
20455;BME280;10386;54.314;10.022;2023-02-21T00:05:29;99965.31;;;8.05;100.00
20455;BME280;10386;54.314;10.022;2023-02-21T00:08:14;99975.69;;;8.11;100.00
20455;BME280;10386;54.314;10.022;2023-02-21T00:11:00;99973.81;;;8.11;100.00
20455;BME280;10386;54.314;10.022;2023-02-21T00:13:49;99968.56;;;8.10;100.00
20455;BME280;10386;54.314;10.022;2023-02-21T00:16:34;99967.44;;;8.12;100.00
20455;BME280;10386;54.314;10.022;2023-02-21T00:19:19;99977.28;;;8.13;100.00
20455;BME280;10386;54.314;10.022;2023-02-21T00:22:05;99986.13;;;8.15;100.00
20455;BME280;10386;54.314;10.022;2023-02-21T00:24:50;99988.31;;;8.10;100.00
20455;BME280;10386;54.314;10.022;2023-02-21T00:27:35;99990.28;;;8.08;100.00
20455;BME280;10386;54.314;10.022;2023-02-21T00:30:20;99995.59;;;8.10;100.00
20455;BME280;10386;54.314;10.022;2023-02-21T00:33:05;99998.16;;;8.11;100.00
20455;BME280;10386;54.314;10.022;2023-02-21T00:35:51;99989.94;;;8.13;100.00
20455;BME280;10386;54.314;10.022;2023-02-21T00:38:36;99996.44;;;8.10;100.00
20455;BME280;10386;54.314;10.022;2023-02-21T00:41:22;100003.03;;;8.06;100.00
20455;BME280;10386;54.314;10.022;2023-02-21T00:44:07;100012.00;;;8.07;100.00
20455;BME280;10386;54.314;10.022;2023-02-21T00:46:52;100020.97;;;8.07;100.00
20455;BME280;10386;54.314;10.022;2023-02-21T00:49:38;100015.06;;;8.02;100.00
20455;BME280;10386;54.314;10.022;2023-02-21T00:52:23;100036.78;;;8.01;100.00
20455;BME280;10386;54.314;10.022;2023-02-21T00:55:08;100027.81;;;8.00;100.00
20455;BME280;10386;54.314;10.022;2023-02-21T00:57:54;100036.69;;;8.02;100.00
20455;BME280;10386;54.314;10.022;2023-02-21T01:00:39;100029.66;;;8.00;100.00
20455;BME280;10386;54.314;10.022;2023-02-21T01:03:24;100049.53;;;7.99;100.00
20455;BME280;10386;54.314;10.022;2023-02-21T01:06:10;100045.63;;;8.03;100.00
20455;BME280;10386;54.314;10.022;2023-02-21T01:08:56;100052.38;;;7.97;100.00
20455;BME280;10386;54.314;10.022;2023-02-21T01:11:41;100066.56;;;7.88;100.00
20455;BME280;10386;54.314;10.022;2023-02-21T01:14:26;100057.88;;;7.96;100.00
20455;BME280;10386;54.314;10.022;2023-02-21T01:17:11;100060.94;;;7.91;100.00
20455;BME280;10386;54.314;10.022;2023-02-21T01:19:59;100066.72;;;7.98;100.00
20455;BME280;10386;54.314;10.022;2023-02-21T01:22:45;100053.56;;;7.93;100.00
20455;BME280;10386;54.314;10.022;2023-02-21T01:25:30;100073.91;;;7.86;100.00
20455;BME280;10386;54.314;10.022;2023-02-21T01:28:16;100085.69;;;7.85;100.00
20455;BME280;10386;54.314;10.022;2023-02-21T01:31:01;100074.13;;;7.83;100.00
20455;BME280;10386;54.314;10.022;2023-02-21T01:33:46;100086.75;;;7.83;100.00
20455;BME280;10386;54.314;10.022;2023-02-21T01:36:31;100085.78;;;7.84;100.00
20455;BME280;10386;54.314;10.022;2023-02-21T01:39:16;100088.47;;;7.84;100.00
20455;BME280;10386;54.314;10.022;2023-02-21T01:42:02;100101.69;;;7.88;100.00
20455;BME280;10386;54.314;10.022;2023-02-21T01:44:48;100098.31;;;7.85;100.00
20455;BME280;10386;54.314;10.022;2023-02-21T01:47:33;100102.34;;;7.79;100.00
20455;BME280;10386;54.314;10.022;2023-02-21T01:50:27;100104.59;;;7.85;100.00
20455;BME280;10386;54.314;10.022;2023-02-21T01:53:18;100098.88;;;7.77;100.00
20455;BME280;10386;54.314;10.022;2023-02-21T01:56:04;100098.66;;;7.80;100.00
20455;BME280;10386;54.314;10.022;2023-02-21T01:58:53;100097.56;;;7.83;100.00
20455;BME280;10386;54.314;10.022;2023-02-21T02:01:48;100094.31;;;7.78;100.00
20455;BME280;10386;54.314;10.022;2023-02-21T02:04:35;100087.19;;;7.77;100.00
20455;BME280;10386;54.314;10.022;2023-02-21T02:07:20;100093.03;;;7.71;100.00
20455;BME280;10386;54.314;10.022;2023-02-21T02:10:07;100089.28;;;7.73;100.00
20455;BME280;10386;54.314;10.022;2023-02-21T02:15:51;100093.78;;;7.73;100.00
20455;BME280;10386;54.314;10.022;2023-02-21T02:18:29;100092.94;;;7.72;100.00
20455;BME280;10386;54.314;10.022;2023-02-21T02:24:04;100096.41;;;7.74;100.00
20455;BME280;10386;54.314;10.022;2023-02-21T02:35:34;100099.31;;;7.59;100.00
20455;BME280;10386;54.314;10.022;2023-02-21T02:38:18;100111.72;;;7.61;100.00
20455;BME280;10386;54.314;10.022;2023-02-21T02:41:05;100117.56;;;7.68;100.00
20455;BME280;10386;54.314;10.022;2023-02-21T02:43:51;100113.03;;;7.68;100.00
20455;BME280;10386;54.314;10.022;2023-02-21T02:46:26;100122.53;;;7.61;100.00
20455;BME280;10386;54.314;10.022;2023-02-21T02:49:01;100135.28;;;7.59;100.00
20455;BME280;10386;54.314;10.022;2023-02-21T02:51:31;100147.81;;;7.60;100.00
20455;BME280;10386;54.314;10.022;2023-02-21T02:53:59;100152.81;;;7.66;100.00
20455;BME280;10386;54.314;10.022;2023-02-21T02:56:26;100156.06;;;7.71;100.00
20455;BME280;10386;54.314;10.022;2023-02-21T03:04:00;100178.09;;;7.65;100.00
20455;BME280;10386;54.314;10.022;2023-02-21T03:12:14;100191.25;;;7.57;100.00
20455;BME280;10386;54.314;10.022;2023-02-21T03:14:53;100209.94;;;7.60;100.00
20455;BME280;10386;54.314;10.022;2023-02-21T03:17:25;100214.38;;;7.61;100.00
20455;BME280;10386;54.314;10.022;2023-02-21T03:19:55;100236.50;;;7.54;100.00
20455;BME280;10386;54.314;10.022;2023-02-21T03:22:26;100247.19;;;7.55;100.00
20455;BME280;10386;54.314;10.022;2023-02-21T03:24:58;100256.28;;;7.54;100.00
20455;BME280;10386;54.314;10.022;2023-02-21T03:27:28;100267.06;;;7.54;100.00
20455;BME280;10386;54.314;10.022;2023-02-21T03:29:59;100276.16;;;7.53;100.00
20455;BME280;10386;54.314;10.022;2023-02-21T03:34:57;100395.09;;;7.52;100.00
20455;BME280;10386;54.314;10.022;2023-02-21T03:37:30;100393.16;;;7.54;100.00
20455;BME280;10386;54.314;10.022;2023-02-21T03:39:58;100407.31;;;7.57;100.00
20455;BME280;10386;54.314;10.022;2023-02-21T03:42:25;100415.94;;;7.50;100.00
20455;BME280;10386;54.314;10.022;2023-02-21T03:44:52;100428.16;;;7.55;100.00
20455;BME280;10386;54.314;10.022;2023-02-21T03:47:19;100437.34;;;7.53;100.00
20455;BME280;10386;54.314;10.022;2023-02-21T03:49:46;100443.19;;;7.59;100.00
20455;BME280;10386;54.314;10.022;2023-02-21T03:52:13;100448.78;;;7.56;100.00
20455;BME280;10386;54.314;10.022;2023-02-21T03:54:40;100453.16;;;7.59;100.00
20455;BME280;10386;54.314;10.022;2023-02-21T03:57:07;100469.34;;;7.59;100.00
20455;BME280;10386;54.314;10.022;2023-02-21T03:59:34;100476.28;;;7.63;100.00
20455;BME280;10386;54.314;10.022;2023-02-21T04:02:01;100484.59;;;7.60;100.00
20455;BME280;10386;54.314;10.022;2023-02-21T04:04:28;100498.09;;;7.60;100.00
20455;BME280;10386;54.314;10.022;2023-02-21T04:06:54;100504.56;;;7.57;100.00
20455;BME280;10386;54.314;10.022;2023-02-21T04:09:21;100510.72;;;7.59;100.00
20455;BME280;10386;54.314;10.022;2023-02-21T04:11:48;100509.09;;;7.57;100.00
20455;BME280;10386;54.314;10.022;2023-02-21T04:14:15;100534.25;;;7.57;100.00
20455;BME280;10386;54.314;10.022;2023-02-21T04:16:42;100546.16;;;7.55;100.00
20455;BME280;10386;54.314;10.022;2023-02-21T04:19:09;100539.19;;;7.65;100.00
20455;BME280;10386;54.314;10.022;2023-02-21T04:21:35;100549.31;;;7.61;100.00
20455;BME280;10386;54.314;10.022;2023-02-21T04:24:02;100566.28;;;7.63;100.00
20455;BME280;10386;54.314;10.022;2023-02-21T04:26:29;100568.34;;;7.60;100.00
20455;BME280;10386;54.314;10.022;2023-02-21T04:28:56;100581.91;;;7.58;100.00
20455;BME280;10386;54.314;10.022;2023-02-21T04:31:22;100586.53;;;7.56;100.00
20455;BME280;10386;54.314;10.022;2023-02-21T04:33:49;100592.91;;;7.55;100.00
20455;BME280;10386;54.314;10.022;2023-02-21T04:36:31;100595.72;;;7.54;100.00
20455;BME280;10386;54.314;10.022;2023-02-21T04:38:58;100603.84;;;7.54;100.00
20455;BME280;10386;54.314;10.022;2023-02-21T04:41:24;100611.16;;;7.52;100.00
20455;BME280;10386;54.314;10.022;2023-02-21T04:43:51;100618.50;;;7.50;100.00
20455;BME280;10386;54.314;10.022;2023-02-21T04:46:19;100628.72;;;7.45;100.00
20455;BME280;10386;54.314;10.022;2023-02-21T04:48:48;100629.38;;;7.48;100.00
20455;BME280;10386;54.314;10.022;2023-02-21T04:51:17;100634.38;;;7.40;100.00
20455;BME280;10386;54.314;10.022;2023-02-21T04:53:47;100640.19;;;7.48;100.00
20455;BME280;10386;54.314;10.022;2023-02-21T04:56:17;100652.06;;;7.46;100.00
20455;BME280;10386;54.314;10.022;2023-02-21T04:58:46;100660.16;;;7.46;100.00
20455;BME280;10386;54.314;10.022;2023-02-21T05:01:15;100670.00;;;7.47;100.00
20455;BME280;10386;54.314;10.022;2023-02-21T05:03:43;100689.53;;;7.36;100.00
20455;BME280;10386;54.314;10.022;2023-02-21T05:06:16;100691.78;;;7.44;100.00
20455;BME280;10386;54.314;10.022;2023-02-21T05:08:43;100703.38;;;7.46;100.00
20455;BME280;10386;54.314;10.022;2023-02-21T05:11:10;100708.44;;;7.36;100.00
20455;BME280;10386;54.314;10.022;2023-02-21T05:13:37;100704.59;;;7.40;100.00
20455;BME280;10386;54.314;10.022;2023-02-21T05:16:04;100708.06;;;7.42;100.00
20455;BME280;10386;54.314;10.022;2023-02-21T05:18:31;100723.31;;;7.43;100.00
20455;BME280;10386;54.314;10.022;2023-02-21T05:21:00;100729.09;;;7.37;100.00
20455;BME280;10386;54.314;10.022;2023-02-21T05:23:28;100737.09;;;7.39;100.00
20455;BME280;10386;54.314;10.022;2023-02-21T05:26:03;100751.66;;;7.36;100.00
20455;BME280;10386;54.314;10.022;2023-02-21T05:28:30;100763.34;;;7.37;100.00
20455;BME280;10386;54.314;10.022;2023-02-21T05:30:57;100776.25;;;7.32;100.00
20455;BME280;10386;54.314;10.022;2023-02-21T05:33:26;100793.03;;;7.37;100.00
20455;BME280;10386;54.314;10.022;2023-02-21T05:35:53;100789.38;;;7.38;100.00
20455;BME280;10386;54.314;10.022;2023-02-21T05:38:22;100807.22;;;7.40;100.00
20455;BME280;10386;54.314;10.022;2023-02-21T05:40:49;100810.88;;;7.39;100.00
20455;BME280;10386;54.314;10.022;2023-02-21T05:43:15;100812.78;;;7.37;100.00
20455;BME280;10386;54.314;10.022;2023-02-21T05:45:43;100815.78;;;7.33;100.00
20455;BME280;10386;54.314;10.022;2023-02-21T05:48:09;100811.16;;;7.19;100.00
20455;BME280;10386;54.314;10.022;2023-02-21T05:50:36;100812.72;;;7.23;100.00
20455;BME280;10386;54.314;10.022;2023-02-21T05:53:05;100824.50;;;7.22;100.00
20455;BME280;10386;54.314;10.022;2023-02-21T05:55:32;100819.16;;;7.21;100.00
20455;BME280;10386;54.314;10.022;2023-02-21T05:57:59;100824.66;;;7.19;100.00
20455;BME280;10386;54.314;10.022;2023-02-21T06:00:28;100832.41;;;7.25;100.00
20455;BME280;10386;54.314;10.022;2023-02-21T06:02:55;100842.50;;;7.22;100.00
20455;BME280;10386;54.314;10.022;2023-02-21T06:05:23;100845.91;;;7.25;100.00
20455;BME280;10386;54.314;10.022;2023-02-21T06:07:50;100853.66;;;7.31;100.00
20455;BME280;10386;54.314;10.022;2023-02-21T06:10:17;100861.16;;;7.26;100.00
20455;BME280;10386;54.314;10.022;2023-02-21T06:12:44;100871.72;;;7.31;100.00
20455;BME280;10386;54.314;10.022;2023-02-21T06:15:11;100869.50;;;7.37;100.00
20455;BME280;10386;54.314;10.022;2023-02-21T06:17:39;100880.31;;;7.37;100.00
20455;BME280;10386;54.314;10.022;2023-02-21T06:20:10;100893.38;;;7.29;100.00
20455;BME280;10386;54.314;10.022;2023-02-21T06:22:38;100890.06;;;7.24;100.00
20455;BME280;10386;54.314;10.022;2023-02-21T06:25:05;100889.91;;;7.27;100.00
20455;BME280;10386;54.314;10.022;2023-02-21T06:27:32;100891.03;;;7.23;100.00
20455;BME280;10386;54.314;10.022;2023-02-21T06:29:58;100897.31;;;7.24;100.00
20455;BME280;10386;54.314;10.022;2023-02-21T06:32:25;100892.59;;;7.27;100.00
20455;BME280;10386;54.314;10.022;2023-02-21T06:34:53;100904.19;;;7.29;100.00
20455;BME280;10386;54.314;10.022;2023-02-21T06:37:20;100909.06;;;7.23;100.00
20455;BME280;10386;54.314;10.022;2023-02-21T06:39:46;100911.31;;;7.30;100.00
20455;BME280;10386;54.314;10.022;2023-02-21T06:42:14;100918.47;;;7.31;100.00
20455;BME280;10386;54.314;10.022;2023-02-21T06:44:43;100922.06;;;7.32;100.00
20455;BME280;10386;54.314;10.022;2023-02-21T06:47:10;100935.44;;;7.33;100.00
20455;BME280;10386;54.314;10.022;2023-02-21T06:49:37;100944.63;;;7.31;100.00
20455;BME280;10386;54.314;10.022;2023-02-21T06:52:05;100950.34;;;7.40;100.00
20455;BME280;10386;54.314;10.022;2023-02-21T06:54:32;100956.81;;;7.38;100.00
20455;BME280;10386;54.314;10.022;2023-02-21T06:56:59;100955.75;;;7.40;100.00
20455;BME280;10386;54.314;10.022;2023-02-21T06:59:28;100954.78;;;7.41;100.00
20455;BME280;10386;54.314;10.022;2023-02-21T07:01:55;100951.69;;;7.49;100.00
20455;BME280;10386;54.314;10.022;2023-02-21T07:04:23;100969.34;;;7.54;100.00
20455;BME280;10386;54.314;10.022;2023-02-21T07:06:51;100967.97;;;7.63;100.00
20455;BME280;10386;54.314;10.022;2023-02-21T07:09:18;100973.13;;;7.67;100.00
20455;BME280;10386;54.314;10.022;2023-02-21T07:11:45;100962.38;;;7.66;100.00
20455;BME280;10386;54.314;10.022;2023-02-21T07:14:13;100974.69;;;7.71;100.00
20455;BME280;10386;54.314;10.022;2023-02-21T07:16:40;100969.88;;;7.76;100.00
20455;BME280;10386;54.314;10.022;2023-02-21T07:19:07;100986.09;;;7.76;100.00
20455;BME280;10386;54.314;10.022;2023-02-21T07:21:34;100987.84;;;7.77;100.00
20455;BME280;10386;54.314;10.022;2023-02-21T07:24:00;100998.38;;;7.82;100.00
20455;BME280;10386;54.314;10.022;2023-02-21T07:26:27;101001.78;;;7.85;100.00
20455;BME280;10386;54.314;10.022;2023-02-21T07:28:54;101013.13;;;7.76;100.00
20455;BME280;10386;54.314;10.022;2023-02-21T07:31:21;101025.56;;;7.79;100.00
20455;BME280;10386;54.314;10.022;2023-02-21T07:33:48;101028.28;;;7.79;100.00
20455;BME280;10386;54.314;10.022;2023-02-21T07:36:15;101042.06;;;7.74;100.00
20455;BME280;10386;54.314;10.022;2023-02-21T07:38:42;101044.66;;;7.76;100.00
20455;BME280;10386;54.314;10.022;2023-02-21T07:41:09;101041.78;;;7.79;100.00
20455;BME280;10386;54.314;10.022;2023-02-21T07:43:36;101037.16;;;7.81;100.00
20455;BME280;10386;54.314;10.022;2023-02-21T07:46:09;101048.09;;;7.79;100.00
20455;BME280;10386;54.314;10.022;2023-02-21T07:48:36;101051.91;;;7.75;100.00
20455;BME280;10386;54.314;10.022;2023-02-21T07:51:02;101054.69;;;7.74;100.00
20455;BME280;10386;54.314;10.022;2023-02-21T07:53:29;101073.72;;;7.72;100.00
20455;BME280;10386;54.314;10.022;2023-02-21T07:55:56;101074.66;;;7.71;100.00
20455;BME280;10386;54.314;10.022;2023-02-21T07:58:23;101069.78;;;7.78;100.00
20455;BME280;10386;54.314;10.022;2023-02-21T08:00:51;101070.75;;;7.92;100.00
20455;BME280;10386;54.314;10.022;2023-02-21T08:03:18;101075.03;;;7.96;100.00
20455;BME280;10386;54.314;10.022;2023-02-21T08:05:44;101085.50;;;8.02;100.00
20455;BME280;10386;54.314;10.022;2023-02-21T08:08:13;101092.22;;;8.11;100.00
20455;BME280;10386;54.314;10.022;2023-02-21T08:10:40;101100.88;;;8.17;100.00
20455;BME280;10386;54.314;10.022;2023-02-21T08:13:07;101117.53;;;8.25;100.00
20455;BME280;10386;54.314;10.022;2023-02-21T08:15:33;101124.50;;;8.29;100.00
20455;BME280;10386;54.314;10.022;2023-02-21T08:18:00;101127.38;;;8.26;100.00
20455;BME280;10386;54.314;10.022;2023-02-21T08:20:27;101126.44;;;8.27;100.00
20455;BME280;10386;54.314;10.022;2023-02-21T08:22:54;101144.31;;;8.29;100.00
20455;BME280;10386;54.314;10.022;2023-02-21T08:25:21;101150.25;;;8.36;100.00
20455;BME280;10386;54.314;10.022;2023-02-21T08:27:48;101155.66;;;8.36;100.00
20455;BME280;10386;54.314;10.022;2023-02-21T08:30:19;101174.34;;;8.40;100.00
20455;BME280;10386;54.314;10.022;2023-02-21T08:32:46;101183.50;;;8.38;100.00
20455;BME280;10386;54.314;10.022;2023-02-21T08:35:14;101193.53;;;8.36;100.00
20455;BME280;10386;54.314;10.022;2023-02-21T08:37:48;101192.84;;;8.32;100.00
20455;BME280;10386;54.314;10.022;2023-02-21T08:40:18;101189.50;;;8.43;100.00
20455;BME280;10386;54.314;10.022;2023-02-21T08:42:50;101199.13;;;8.48;100.00
20455;BME280;10386;54.314;10.022;2023-02-21T08:45:19;101200.34;;;8.58;100.00
20455;BME280;10386;54.314;10.022;2023-02-21T08:47:46;101211.16;;;8.58;100.00
20455;BME280;10386;54.314;10.022;2023-02-21T08:50:13;101217.13;;;8.65;100.00
20455;BME280;10386;54.314;10.022;2023-02-21T08:52:40;101213.53;;;8.64;100.00
20455;BME280;10386;54.314;10.022;2023-02-21T08:55:07;101229.94;;;8.61;100.00
20455;BME280;10386;54.314;10.022;2023-02-21T08:57:34;101223.47;;;8.79;100.00
20455;BME280;10386;54.314;10.022;2023-02-21T09:00:01;101231.03;;;9.04;100.00
20455;BME280;10386;54.314;10.022;2023-02-21T09:02:31;101230.19;;;8.88;100.00
20455;BME280;10386;54.314;10.022;2023-02-21T09:04:58;101240.59;;;8.64;100.00
20455;BME280;10386;54.314;10.022;2023-02-21T09:07:25;101240.50;;;8.66;100.00
20455;BME280;10386;54.314;10.022;2023-02-21T09:09:54;101238.56;;;8.83;100.00
20455;BME280;10386;54.314;10.022;2023-02-21T09:12:20;101248.72;;;8.80;100.00
20455;BME280;10386;54.314;10.022;2023-02-21T09:14:47;101241.72;;;8.76;100.00
20455;BME280;10386;54.314;10.022;2023-02-21T09:17:14;101256.56;;;8.69;100.00
20455;BME280;10386;54.314;10.022;2023-02-21T09:19:41;101264.34;;;8.75;100.00
20455;BME280;10386;54.314;10.022;2023-02-21T09:22:09;101259.38;;;8.83;100.00
20455;BME280;10386;54.314;10.022;2023-02-21T09:24:36;101270.53;;;8.92;100.00
20455;BME280;10386;54.314;10.022;2023-02-21T09:27:04;101279.19;;;8.83;100.00
20455;BME280;10386;54.314;10.022;2023-02-21T09:29:33;101265.47;;;8.86;100.00
20455;BME280;10386;54.314;10.022;2023-02-21T09:32:12;101276.03;;;8.91;100.00
20455;BME280;10386;54.314;10.022;2023-02-21T09:34:39;101280.56;;;8.90;100.00
20455;BME280;10386;54.314;10.022;2023-02-21T09:37:05;101287.28;;;8.83;100.00
20455;BME280;10386;54.314;10.022;2023-02-21T09:39:32;101286.84;;;8.75;100.00
20455;BME280;10386;54.314;10.022;2023-02-21T09:42:02;101291.75;;;8.84;100.00
20455;BME280;10386;54.314;10.022;2023-02-21T09:44:29;101298.31;;;8.96;100.00
20455;BME280;10386;54.314;10.022;2023-02-21T09:47:01;101295.78;;;9.08;100.00
20455;BME280;10386;54.314;10.022;2023-02-21T09:49:36;101312.22;;;9.05;100.00
20455;BME280;10386;54.314;10.022;2023-02-21T09:52:06;101307.75;;;9.04;100.00
20455;BME280;10386;54.314;10.022;2023-02-21T09:54:41;101317.47;;;9.08;100.00
20455;BME280;10386;54.314;10.022;2023-02-21T09:57:16;101320.69;;;8.99;100.00
20455;BME280;10386;54.314;10.022;2023-02-21T09:59:44;101322.16;;;9.05;100.00
20455;BME280;10386;54.314;10.022;2023-02-21T10:07:53;101348.72;;;9.29;100.00
20455;BME280;10386;54.314;10.022;2023-02-21T10:10:37;101357.09;;;9.40;100.00
20455;BME280;10386;54.314;10.022;2023-02-21T10:16:04;101366.97;;;9.57;100.00
20455;BME280;10386;54.314;10.022;2023-02-21T10:18:42;101374.63;;;9.64;100.00
20455;BME280;10386;54.314;10.022;2023-02-21T10:21:26;101377.25;;;9.65;100.00
20455;BME280;10386;54.314;10.022;2023-02-21T10:23:55;101371.50;;;9.56;100.00
20455;BME280;10386;54.314;10.022;2023-02-21T10:26:27;101388.53;;;9.58;100.00
20455;BME280;10386;54.314;10.022;2023-02-21T10:28:55;101393.53;;;9.65;100.00
20455;BME280;10386;54.314;10.022;2023-02-21T10:33:58;101396.66;;;9.73;100.00
20455;BME280;10386;54.314;10.022;2023-02-21T10:36:28;101413.78;;;9.89;100.00
20455;BME280;10386;54.314;10.022;2023-02-21T10:39:09;101413.91;;;9.72;100.00
20455;BME280;10386;54.314;10.022;2023-02-21T10:41:39;101424.19;;;9.81;100.00
20455;BME280;10386;54.314;10.022;2023-02-21T10:44:24;101426.22;;;9.78;100.00
20455;BME280;10386;54.314;10.022;2023-02-21T10:47:21;101431.47;;;9.81;100.00
20455;BME280;10386;54.314;10.022;2023-02-21T10:50:01;101437.69;;;9.83;100.00
20455;BME280;10386;54.314;10.022;2023-02-21T10:52:35;101448.59;;;9.81;100.00
20455;BME280;10386;54.314;10.022;2023-02-21T10:55:16;101458.50;;;9.82;100.00
20455;BME280;10386;54.314;10.022;2023-02-21T10:58:05;101445.81;;;9.83;100.00
20455;BME280;10386;54.314;10.022;2023-02-21T11:00:43;101451.38;;;9.95;100.00
20455;BME280;10386;54.314;10.022;2023-02-21T11:06:02;101457.00;;;10.08;100.00
20455;BME280;10386;54.314;10.022;2023-02-21T11:08:41;101459.50;;;10.26;100.00
20455;BME280;10386;54.314;10.022;2023-02-21T11:11:09;101464.75;;;9.98;100.00
20455;BME280;10386;54.314;10.022;2023-02-21T11:13:36;101465.50;;;10.02;100.00
20455;BME280;10386;54.314;10.022;2023-02-21T11:16:30;101467.75;;;10.09;100.00
20455;BME280;10386;54.314;10.022;2023-02-21T11:19:05;101469.06;;;10.02;100.00
20455;BME280;10386;54.314;10.022;2023-02-21T11:21:32;101474.91;;;10.10;100.00
20455;BME280;10386;54.314;10.022;2023-02-21T11:24:01;101474.31;;;10.05;100.00
20455;BME280;10386;54.314;10.022;2023-02-21T11:26:35;101473.00;;;9.97;100.00
20455;BME280;10386;54.314;10.022;2023-02-21T11:29:10;101466.00;;;10.08;100.00
20455;BME280;10386;54.314;10.022;2023-02-21T11:31:39;101466.38;;;10.02;100.00
20455;BME280;10386;54.314;10.022;2023-02-21T11:34:08;101474.47;;;10.18;100.00
20455;BME280;10386;54.314;10.022;2023-02-21T11:36:39;101473.00;;;10.42;100.00
20455;BME280;10386;54.314;10.022;2023-02-21T11:46:54;101478.59;;;10.09;100.00
20455;BME280;10386;54.314;10.022;2023-02-21T11:49:40;101490.84;;;10.16;100.00
20455;BME280;10386;54.314;10.022;2023-02-21T11:52:39;101486.13;;;10.20;100.00
20455;BME280;10386;54.314;10.022;2023-02-21T11:55:16;101492.72;;;10.00;100.00
20455;BME280;10386;54.314;10.022;2023-02-21T12:00:46;101487.69;;;10.08;100.00
20455;BME280;10386;54.314;10.022;2023-02-21T12:38:49;101517.72;;;10.05;100.00
20455;BME280;10386;54.314;10.022;2023-02-21T12:41:44;101511.16;;;10.09;100.00
20455;BME280;10386;54.314;10.022;2023-02-21T12:44:32;101508.44;;;10.09;100.00
20455;BME280;10386;54.314;10.022;2023-02-21T12:47:09;101521.03;;;9.95;100.00
20455;BME280;10386;54.314;10.022;2023-02-21T12:49:57;101526.66;;;9.92;100.00
20455;BME280;10386;54.314;10.022;2023-02-21T12:52:41;101526.66;;;9.92;100.00
20455;BME280;10386;54.314;10.022;2023-02-21T12:58:03;101533.03;;;9.91;100.00
20455;BME280;10386;54.314;10.022;2023-02-21T13:01:31;101550.06;;;9.77;100.00
20455;BME280;10386;54.314;10.022;2023-02-21T13:04:02;101555.16;;;9.83;100.00
20455;BME280;10386;54.314;10.022;2023-02-21T13:09:33;101542.19;;;9.73;100.00
20455;BME280;10386;54.314;10.022;2023-02-21T13:12:15;101529.09;;;9.65;100.00
20455;BME280;10386;54.314;10.022;2023-02-21T13:17:12;101523.16;;;9.90;100.00
20455;BME280;10386;54.314;10.022;2023-02-21T13:28:42;101513.16;;;9.90;100.00
20455;BME280;10386;54.314;10.022;2023-02-21T13:31:22;101513.88;;;9.78;100.00
20455;BME280;10386;54.314;10.022;2023-02-21T13:33:51;101525.84;;;9.90;100.00
20455;BME280;10386;54.314;10.022;2023-02-21T13:39:29;101526.47;;;9.95;100.00
20455;BME280;10386;54.314;10.022;2023-02-21T13:42:14;101505.31;;;10.01;100.00
20455;BME280;10386;54.314;10.022;2023-02-21T13:44:46;101518.03;;;9.99;100.00
20455;BME280;10386;54.314;10.022;2023-02-21T13:47:19;101510.25;;;9.93;100.00
20455;BME280;10386;54.314;10.022;2023-02-21T13:49:50;101512.91;;;9.95;100.00
20455;BME280;10386;54.314;10.022;2023-02-21T13:57:49;101524.72;;;9.94;100.00
20455;BME280;10386;54.314;10.022;2023-02-21T14:10:51;101510.28;;;9.78;100.00
20455;BME280;10386;54.314;10.022;2023-02-21T14:13:20;101493.22;;;9.76;100.00
20455;BME280;10386;54.314;10.022;2023-02-21T14:15:55;101498.38;;;9.80;100.00
20455;BME280;10386;54.314;10.022;2023-02-21T14:18:27;101498.31;;;9.82;100.00
20455;BME280;10386;54.314;10.022;2023-02-21T14:20:56;101503.72;;;9.82;100.00
20455;BME280;10386;54.314;10.022;2023-02-21T14:23:57;101500.06;;;9.83;100.00
20455;BME280;10386;54.314;10.022;2023-02-21T14:39:57;101487.88;;;9.59;100.00
20455;BME280;10386;54.314;10.022;2023-02-21T14:48:33;101502.41;;;9.73;100.00
20455;BME280;10386;54.314;10.022;2023-02-21T15:03:10;101515.94;;;9.43;100.00
20455;BME280;10386;54.314;10.022;2023-02-21T15:08:26;101523.91;;;9.46;100.00
20455;BME280;10386;54.314;10.022;2023-02-21T15:10:58;101522.09;;;9.61;100.00
20455;BME280;10386;54.314;10.022;2023-02-21T15:13:29;101533.75;;;9.79;100.00
20455;BME280;10386;54.314;10.022;2023-02-21T15:16:12;101517.53;;;9.77;100.00
20455;BME280;10386;54.314;10.022;2023-02-21T15:18:41;101517.53;;;9.77;100.00
20455;BME280;10386;54.314;10.022;2023-02-21T15:21:21;101506.94;;;9.73;100.00
20455;BME280;10386;54.314;10.022;2023-02-21T15:24:13;101505.97;;;9.74;100.00
20455;BME280;10386;54.314;10.022;2023-02-21T15:26:40;101516.31;;;9.83;100.00
20455;BME280;10386;54.314;10.022;2023-02-21T15:29:08;101523.31;;;9.87;100.00
20455;BME280;10386;54.314;10.022;2023-02-21T15:31:40;101530.47;;;9.72;100.00
20455;BME280;10386;54.314;10.022;2023-02-21T15:34:19;101531.72;;;9.82;100.00
20455;BME280;10386;54.314;10.022;2023-02-21T15:36:56;101544.66;;;9.77;100.00
20455;BME280;10386;54.314;10.022;2023-02-21T15:39:33;101547.53;;;9.74;100.00
20455;BME280;10386;54.314;10.022;2023-02-21T15:42:03;101546.38;;;9.63;100.00
20455;BME280;10386;54.314;10.022;2023-02-21T15:44:37;101550.59;;;9.68;100.00
20455;BME280;10386;54.314;10.022;2023-02-21T15:47:12;101557.16;;;9.64;100.00
20455;BME280;10386;54.314;10.022;2023-02-21T15:49:51;101571.31;;;9.69;100.00
20455;BME280;10386;54.314;10.022;2023-02-21T15:52:36;101573.25;;;9.67;100.00